Time;durP1;ratioP1;P1;durP2;ratioP2;P2;SDS_P1;SDS_P2;PMS_P1;PMS_P2;Temp;Humidity;BMP_temperature;BMP_pressure;BME280_temperature;BME280_humidity;BME280_pressure;Samples;Min_cycle;Max_cycle;Signal;HPM_P1;HPM_P2
2022/01/05 00:01:25;;;;;;;7.53;2.80;;;2.60;99.90;;;;;;5104583;28;20062;-74
2022/01/05 00:03:51;;;;;;;9.90;2.83;;;2.60;99.90;;;;;;5100814;28;20046;-74
2022/01/05 00:06:17;;;;;;;9.15;2.83;;;2.50;99.90;;;;;;5104069;28;20458;-74
2022/01/05 00:08:43;;;;;;;11.10;3.55;;;2.50;99.90;;;;;;5097519;28;20123;-72
2022/01/05 00:11:10;;;;;;;7.93;2.40;;;2.50;99.90;;;;;;5093537;28;20062;-74
2022/01/05 00:13:36;;;;;;;11.55;2.65;;;2.50;99.90;;;;;;5093835;28;20056;-74
2022/01/05 00:16:02;;;;;;;8.27;2.80;;;2.50;99.90;;;;;;5097982;28;20405;-74
2022/01/05 00:18:28;;;;;;;8.25;2.28;;;2.40;99.90;;;;;;5093077;28;20059;-74
2022/01/05 00:20:54;;;;;;;7.45;2.50;;;2.50;99.90;;;;;;5100168;28;20047;-74
2022/01/05 00:23:19;;;;;;;8.65;2.55;;;2.40;99.90;;;;;;5113779;28;20040;-74
2022/01/05 00:25:45;;;;;;;8.55;2.80;;;2.40;99.90;;;;;;5102208;28;20131;-72
2022/01/05 00:28:11;;;;;;;8.57;2.28;;;2.40;99.90;;;;;;5093422;28;20052;-74
2022/01/05 00:30:37;;;;;;;9.20;2.45;;;2.40;99.90;;;;;;5093080;28;20044;-74
2022/01/05 00:33:02;;;;;;;7.20;2.38;;;2.40;99.90;;;;;;5092819;28;20040;-74
2022/01/05 00:35:28;;;;;;;9.18;2.35;;;2.40;99.90;;;;;;5095328;28;20052;-74
2022/01/05 00:37:54;;;;;;;9.70;2.40;;;2.40;99.90;;;;;;5106832;28;20054;-74
2022/01/05 00:40:19;;;;;;;9.82;2.70;;;2.40;99.90;;;;;;5093888;28;20458;-74
2022/01/05 00:42:45;;;;;;;9.13;2.55;;;2.40;99.90;;;;;;5113692;28;20040;-74
2022/01/05 00:45:11;;;;;;;8.45;2.70;;;2.40;99.90;;;;;;5113334;28;20127;-74
2022/01/05 00:47:36;;;;;;;8.95;2.85;;;2.60;99.90;;;;;;5093543;27;20055;-74
2022/01/05 00:50:02;;;;;;;7.90;2.47;;;2.60;99.90;;;;;;5092703;28;20127;-73
2022/01/05 00:52:28;;;;;;;9.20;2.38;;;2.60;99.90;;;;;;5093735;28;20047;-74
2022/01/05 00:54:54;;;;;;;9.10;2.70;;;2.70;99.90;;;;;;5091322;28;20040;-73
2022/01/05 00:57:19;;;;;;;10.15;2.60;;;2.80;99.90;;;;;;5092584;28;20131;-74
2022/01/05 00:59:45;;;;;;;7.88;2.25;;;2.90;99.90;;;;;;5093013;28;20507;-75
2022/01/05 01:02:11;;;;;;;8.43;2.65;;;2.80;99.90;;;;;;5099576;28;20071;-74
2022/01/05 01:04:36;;;;;;;9.13;2.50;;;2.80;99.90;;;;;;5098712;28;20040;-74
2022/01/05 01:07:02;;;;;;;8.77;2.55;;;2.80;99.90;;;;;;5107167;28;20124;-74
2022/01/05 01:09:28;;;;;;;7.88;2.22;;;2.70;99.90;;;;;;5094042;28;20051;-74
2022/01/05 01:11:55;;;;;;;7.93;2.58;;;2.70;99.90;;;;;;5105492;28;20138;-74
2022/01/05 01:14:21;;;;;;;8.98;2.20;;;2.60;99.90;;;;;;5102194;28;20098;-74
2022/01/05 01:16:46;;;;;;;9.63;2.30;;;2.60;99.90;;;;;;5092983;28;20114;-74
2022/01/05 01:19:12;;;;;;;7.32;2.88;;;2.50;99.90;;;;;;5091855;28;20394;-74
2022/01/05 01:21:38;;;;;;;7.03;2.30;;;2.50;99.90;;;;;;5092820;28;20547;-75
2022/01/05 01:24:04;;;;;;;8.02;2.50;;;2.50;99.90;;;;;;5091994;28;20065;-75
2022/01/05 01:26:31;;;;;;;9.75;2.70;;;2.40;99.90;;;;;;5093795;28;20048;-74
2022/01/05 01:28:58;;;;;;;8.68;2.45;;;2.40;99.90;;;;;;5091863;28;20051;-74
2022/01/05 01:31:25;;;;;;;7.82;2.25;;;2.30;99.90;;;;;;5092830;28;20047;-74
2022/01/05 01:33:51;;;;;;;8.63;2.58;;;2.30;99.90;;;;;;5092373;28;20055;-74
2022/01/05 01:36:17;;;;;;;7.95;2.60;;;2.20;99.90;;;;;;5092553;28;20050;-74
2022/01/05 01:38:43;;;;;;;10.73;2.47;;;2.20;99.90;;;;;;5091743;28;20065;-74
2022/01/05 01:41:09;;;;;;;9.45;2.88;;;2.20;99.90;;;;;;5096710;28;20167;-75
2022/01/05 01:43:36;;;;;;;8.05;2.65;;;2.20;99.90;;;;;;5092775;28;20044;-75
2022/01/05 01:46:05;;;;;;;9.50;2.58;;;2.20;99.90;;;;;;5091739;28;20055;-74
2022/01/05 01:48:31;;;;;;;9.10;2.38;;;2.10;99.90;;;;;;5092124;28;20048;-74
2022/01/05 01:50:58;;;;;;;10.68;2.60;;;2.10;99.90;;;;;;5091766;28;20083;-73
2022/01/05 01:53:23;;;;;;;7.90;2.55;;;2.10;99.90;;;;;;5091458;28;20052;-74
2022/01/05 01:55:50;;;;;;;9.55;2.53;;;2.10;99.90;;;;;;5092378;28;20044;-74
2022/01/05 01:58:21;;;;;;;8.90;2.60;;;2.10;99.90;;;;;;5091731;28;20044;-74
2022/01/05 02:00:47;;;;;;;8.30;2.50;;;2.00;99.90;;;;;;5097058;28;20044;-74
2022/01/05 02:03:14;;;;;;;9.85;2.72;;;2.00;99.90;;;;;;5091647;28;20036;-74
2022/01/05 02:05:40;;;;;;;10.20;3.33;;;2.00;99.90;;;;;;5091408;28;20089;-74
2022/01/05 02:08:06;;;;;;;10.63;2.83;;;1.90;99.90;;;;;;5113623;28;20047;-74
2022/01/05 02:10:31;;;;;;;13.10;4.00;;;1.90;99.90;;;;;;5108177;28;20039;-73
2022/01/05 02:12:58;;;;;;;8.77;2.85;;;1.90;99.90;;;;;;5094661;28;20554;-74
2022/01/05 02:15:23;;;;;;;10.40;3.00;;;1.90;99.90;;;;;;5096177;28;20101;-73
2022/01/05 02:17:56;;;;;;;9.40;2.45;;;1.90;99.90;;;;;;5095114;28;20039;-74
2022/01/05 02:20:25;;;;;;;9.43;2.97;;;1.80;99.90;;;;;;5103556;28;20039;-74
2022/01/05 02:22:53;;;;;;;7.25;2.53;;;1.80;99.90;;;;;;5099165;28;20174;-74
2022/01/05 02:25:19;;;;;;;12.00;2.70;;;1.80;99.90;;;;;;5098002;28;20044;-74
2022/01/05 02:27:46;;;;;;;8.88;2.70;;;1.80;99.90;;;;;;5095413;28;20051;-74
2022/01/05 02:30:17;;;;;;;10.85;3.00;;;1.80;99.90;;;;;;5095760;28;20115;-74
2022/01/05 02:32:43;;;;;;;;;;;1.80;99.90;;;;;;5095192;28;20040;-74
2022/01/05 02:35:10;;;;;;;7.85;2.50;;;1.80;99.90;;;;;;5095107;28;19927;-74
2022/01/05 02:37:43;;;;;;;7.18;2.50;;;1.80;99.90;;;;;;5095099;28;20044;-74
2022/01/05 02:40:14;;;;;;;10.50;2.97;;;1.90;99.90;;;;;;5098492;28;20310;-73
2022/01/05 02:42:40;;;;;;;;;;;1.90;99.90;;;;;;5110741;28;20044;-74
2022/01/05 02:45:07;;;;;;;9.07;2.25;;;1.90;99.90;;;;;;5095747;28;19920;-73
2022/01/05 02:47:32;;;;;;;8.98;2.95;;;2.00;99.90;;;;;;5094009;28;20036;-74
2022/01/05 02:49:59;;;;;;;8.48;2.60;;;2.00;99.90;;;;;;5094645;28;20047;-73
2022/01/05 02:52:25;;;;;;;9.48;2.40;;;2.00;99.90;;;;;;5074236;28;20079;-74
2022/01/05 02:54:51;;;;;;;7.00;2.65;;;2.00;99.90;;;;;;5097163;28;20043;-74
2022/01/05 02:57:17;;;;;;;6.80;2.13;;;2.00;99.90;;;;;;5114410;28;20043;-74
2022/01/05 02:59:43;;;;;;;8.60;2.60;;;2.00;99.90;;;;;;5100281;28;20511;-73
2022/01/05 03:02:09;;;;;;;7.63;2.53;;;2.10;99.90;;;;;;5093712;28;20040;-73
2022/01/05 03:04:35;;;;;;;8.25;2.35;;;2.10;99.90;;;;;;5093366;28;20044;-73
2022/01/05 03:07:01;;;;;;;5.75;2.33;;;2.10;99.90;;;;;;5094554;28;20048;-74
2022/01/05 03:09:26;;;;;;;10.23;2.40;;;2.10;99.90;;;;;;5095118;28;20087;-73
2022/01/05 03:11:53;;;;;;;8.57;2.35;;;2.10;99.90;;;;;;5094199;28;20052;-73
2022/01/05 03:14:20;;;;;;;8.88;2.50;;;2.10;99.90;;;;;;5094402;28;20047;-73
2022/01/05 03:16:46;;;;;;;10.18;2.50;;;2.10;99.90;;;;;;5105918;28;20078;-73
2022/01/05 03:19:12;;;;;;;8.77;2.22;;;2.10;99.90;;;;;;5105785;28;20040;-74
2022/01/05 03:21:37;;;;;;;12.00;2.63;;;2.10;99.90;;;;;;5094069;28;20047;-74
2022/01/05 03:24:03;;;;;;;7.20;2.60;;;2.10;99.90;;;;;;5101639;28;20157;-74
2022/01/05 03:26:29;;;;;;;9.68;2.70;;;2.20;99.90;;;;;;5096275;28;20096;-74
2022/01/05 03:28:55;;;;;;;7.82;2.50;;;2.10;99.90;;;;;;5094178;28;20469;-74
2022/01/05 03:31:20;;;;;;;10.38;2.38;;;2.20;99.90;;;;;;5093899;28;20031;-73
2022/01/05 03:33:46;;;;;;;10.38;2.67;;;2.20;99.90;;;;;;5094189;28;20044;-74
2022/01/05 03:36:12;;;;;;;11.20;2.95;;;2.10;99.90;;;;;;5098287;28;20447;-74
2022/01/05 03:38:37;;;;;;;9.18;2.63;;;2.10;99.90;;;;;;5094305;28;20119;-74
2022/01/05 03:41:03;;;;;;;9.52;2.30;;;2.10;99.90;;;;;;5099475;28;20044;-73
2022/01/05 03:43:29;;;;;;;8.98;2.60;;;2.10;99.90;;;;;;5114110;28;20086;-74
2022/01/05 03:45:55;;;;;;;9.57;2.80;;;2.10;99.90;;;;;;5107805;28;20061;-74
2022/01/05 03:48:21;;;;;;;7.47;2.33;;;2.10;99.90;;;;;;5093180;28;20046;-73
2022/01/05 03:50:48;;;;;;;10.52;2.38;;;2.00;99.90;;;;;;5097293;28;20126;-73
2022/01/05 03:53:14;;;;;;;8.35;2.38;;;2.00;99.90;;;;;;5092771;28;20043;-74
2022/01/05 03:55:41;;;;;;;8.05;2.42;;;2.00;99.90;;;;;;5093683;28;20382;-74
2022/01/05 03:58:08;;;;;;;7.47;2.45;;;2.00;99.90;;;;;;5093344;28;20056;-73
2022/01/05 04:00:41;;;;;;;10.20;2.75;;;2.00;99.90;;;;;;5105758;28;20079;-74
2022/01/05 04:03:07;;;;;;;12.40;3.30;;;1.90;99.90;;;;;;5093612;28;20047;-73
2022/01/05 04:05:33;;;;;;;9.60;2.92;;;1.90;99.90;;;;;;5106524;28;20484;-74
2022/01/05 04:07:58;;;;;;;10.00;2.83;;;1.90;99.90;;;;;;5092908;28;20036;-74
2022/01/05 04:10:25;;;;;;;9.95;2.80;;;1.90;99.90;;;;;;5100120;28;20040;-73
2022/01/05 04:12:51;;;;;;;11.82;3.08;;;1.90;99.90;;;;;;5092582;28;20048;-74
2022/01/05 04:15:17;;;;;;;8.75;2.53;;;1.90;99.90;;;;;;5109808;28;20055;-73
2022/01/05 04:17:43;;;;;;;10.93;2.97;;;1.90;99.90;;;;;;5095340;28;20052;-74
2022/01/05 04:20:11;;;;;;;9.23;2.80;;;1.90;99.90;;;;;;5108695;28;20084;-74
2022/01/05 04:22:36;;;;;;;8.77;2.60;;;1.90;99.90;;;;;;5107469;28;20044;-71
2022/01/05 04:25:03;;;;;;;10.05;3.25;;;2.00;99.90;;;;;;5097330;28;20050;-73
2022/01/05 04:27:28;;;;;;;13.00;2.97;;;1.90;99.90;;;;;;5092695;28;20039;-73
2022/01/05 04:29:54;;;;;;;11.48;2.95;;;1.90;99.90;;;;;;5094113;28;20454;-73
2022/01/05 04:32:20;;;;;;;11.32;3.22;;;1.90;99.90;;;;;;5092722;28;20044;-73
2022/01/05 04:34:45;;;;;;;15.10;3.65;;;1.90;99.90;;;;;;5093769;28;20059;-74
2022/01/05 04:37:11;;;;;;;9.90;3.00;;;1.90;99.90;;;;;;5092374;28;20113;-73
2022/01/05 04:39:37;;;;;;;12.32;2.97;;;1.90;99.90;;;;;;5092513;28;20389;-73
2022/01/05 04:42:03;;;;;;;10.93;3.22;;;1.90;99.90;;;;;;5092986;28;20047;-74
2022/01/05 04:44:29;;;;;;;8.55;3.08;;;1.90;99.90;;;;;;5092369;28;20077;-73
2022/01/05 04:46:55;;;;;;;12.20;3.08;;;1.90;99.90;;;;;;5093057;28;20134;-74
2022/01/05 04:49:21;;;;;;;14.35;3.40;;;1.90;99.90;;;;;;5105088;28;20043;-73
2022/01/05 04:51:47;;;;;;;12.63;3.53;;;1.90;99.90;;;;;;5113184;28;20400;-74
2022/01/05 04:54:13;;;;;;;10.52;3.30;;;2.00;99.90;;;;;;5099646;28;20043;-74
2022/01/05 04:56:38;;;;;;;9.63;3.80;;;2.10;99.90;;;;;;5091885;28;20093;-74
2022/01/05 04:59:04;;;;;;;13.38;3.53;;;2.10;99.90;;;;;;5092566;28;20101;-74
2022/01/05 05:01:30;;;;;;;11.90;3.17;;;2.10;99.90;;;;;;5097898;28;20108;-73
2022/01/05 05:03:56;;;;;;;12.15;3.85;;;2.20;99.90;;;;;;5098122;28;20027;-74
2022/01/05 05:06:22;;;;;;;12.43;3.35;;;2.30;99.90;;;;;;5096144;28;20350;-75
2022/01/05 05:08:49;;;;;;;10.15;3.50;;;2.30;99.90;;;;;;5093188;28;20040;-74
2022/01/05 05:11:15;;;;;;;13.90;3.67;;;2.30;99.90;;;;;;5092788;28;20090;-74
2022/01/05 05:13:41;;;;;;;11.85;3.38;;;2.30;99.90;;;;;;5096772;28;20071;-74
2022/01/05 05:16:07;;;;;;;10.77;3.05;;;2.30;99.90;;;;;;5112999;28;20058;-74
2022/01/05 05:18:32;;;;;;;12.57;3.33;;;2.30;99.90;;;;;;5109471;28;20043;-74
2022/01/05 05:20:59;;;;;;;8.75;2.88;;;2.20;99.90;;;;;;5091894;28;20040;-73
2022/01/05 05:23:25;;;;;;;12.77;3.67;;;2.20;99.90;;;;;;5092373;28;20044;-73
2022/01/05 05:25:50;;;;;;;11.02;3.10;;;2.20;99.90;;;;;;5093014;28;20039;-74
2022/01/05 05:28:16;;;;;;;13.13;3.92;;;2.20;99.90;;;;;;5092314;28;20404;-74
2022/01/05 05:30:42;;;;;;;11.82;4.15;;;2.20;99.90;;;;;;5092499;28;20044;-73
2022/01/05 05:33:08;;;;;;;13.80;3.83;;;2.20;99.90;;;;;;5092590;28;20089;-74
2022/01/05 05:35:34;;;;;;;14.35;3.72;;;2.10;99.90;;;;;;5091490;28;20048;-73
2022/01/05 05:38:00;;;;;;;14.25;4.65;;;2.20;99.90;;;;;;5092538;28;20044;-74
2022/01/05 05:40:26;;;;;;;13.02;3.95;;;2.20;99.90;;;;;;5091965;28;20066;-74
2022/01/05 05:42:52;;;;;;;15.73;3.88;;;2.20;99.90;;;;;;5094240;28;20051;-74
2022/01/05 05:45:18;;;;;;;13.88;4.32;;;2.30;99.90;;;;;;5096154;28;20050;-74
2022/01/05 05:47:44;;;;;;;12.80;3.92;;;2.40;99.90;;;;;;5095732;28;20040;-74
2022/01/05 05:50:10;;;;;;;14.57;3.95;;;2.40;99.90;;;;;;5095955;28;20044;-74
2022/01/05 05:52:36;;;;;;;13.23;3.80;;;2.50;99.90;;;;;;5095080;28;20076;-73
2022/01/05 05:55:02;;;;;;;11.55;3.85;;;2.60;99.90;;;;;;5095834;28;20044;-74
2022/01/05 05:57:28;;;;;;;16.40;3.97;;;2.60;99.90;;;;;;5095750;28;20040;-74
2022/01/05 05:59:54;;;;;;;12.75;3.60;;;2.60;99.90;;;;;;5095902;28;20036;-74
2022/01/05 06:02:19;;;;;;;10.88;3.42;;;2.60;99.90;;;;;;5095677;28;20528;-73
2022/01/05 06:04:45;;;;;;;13.43;4.38;;;2.70;99.90;;;;;;5095029;28;20043;-74
2022/01/05 06:07:11;;;;;;;14.35;4.05;;;2.70;99.90;;;;;;5096022;28;20059;-74
2022/01/05 06:09:36;;;;;;;12.80;4.03;;;2.70;99.90;;;;;;5095379;28;20048;-73
2022/01/05 06:12:02;;;;;;;16.45;4.60;;;2.60;99.90;;;;;;5095570;28;20464;-74
2022/01/05 06:14:28;;;;;;;13.50;4.25;;;2.60;99.90;;;;;;5095600;28;20508;-73
2022/01/05 06:16:54;;;;;;;14.38;4.45;;;2.70;99.90;;;;;;5095208;28;20044;-73
2022/01/05 06:19:19;;;;;;;12.75;4.05;;;2.70;99.90;;;;;;5095597;28;20102;-74
2022/01/05 06:21:45;;;;;;;14.15;4.97;;;2.70;99.90;;;;;;5094863;28;20191;-74
2022/01/05 06:24:12;;;;;;;13.48;4.40;;;2.80;99.90;;;;;;5095888;28;20044;-74
2022/01/05 06:26:37;;;;;;;16.88;4.63;;;2.80;99.90;;;;;;5095251;28;20043;-74
2022/01/05 06:29:04;;;;;;;15.73;4.05;;;2.80;99.90;;;;;;5095623;28;20040;-74
2022/01/05 06:31:29;;;;;;;15.45;4.28;;;2.80;99.90;;;;;;5095169;28;20036;-75
2022/01/05 06:33:55;;;;;;;11.75;4.07;;;2.90;99.90;;;;;;5094869;28;20048;-74
2022/01/05 06:36:21;;;;;;;13.05;4.60;;;2.90;99.90;;;;;;5095502;28;20085;-74
2022/01/05 06:38:46;;;;;;;16.35;4.00;;;2.90;99.90;;;;;;5094849;28;20470;-74
2022/01/05 06:41:12;;;;;;;12.77;4.30;;;2.90;99.90;;;;;;5094874;28;20510;-74
2022/01/05 06:43:38;;;;;;;16.65;4.40;;;2.90;99.90;;;;;;5093758;28;20036;-73
2022/01/05 06:46:03;;;;;;;12.55;4.28;;;2.90;99.90;;;;;;5095123;28;20130;-75
2022/01/05 06:48:29;;;;;;;15.88;4.55;;;2.90;99.90;;;;;;5094869;28;20044;-75
2022/01/05 06:50:55;;;;;;;17.55;4.20;;;3.00;99.90;;;;;;5094442;28;20077;-74
2022/01/05 06:53:21;;;;;;;15.95;4.53;;;3.00;99.90;;;;;;5093303;28;20040;-75
2022/01/05 06:55:47;;;;;;;14.68;4.80;;;3.00;99.90;;;;;;5094066;28;20164;-74
2022/01/05 06:58:12;;;;;;;18.38;4.68;;;3.10;99.90;;;;;;5094968;28;20094;-74
2022/01/05 07:00:38;;;;;;;15.15;4.88;;;3.10;99.90;;;;;;5094604;28;20080;-71
2022/01/05 07:03:05;;;;;;;14.60;4.75;;;3.10;99.90;;;;;;5094349;28;20047;-74
2022/01/05 07:05:31;;;;;;;17.25;4.57;;;3.10;99.90;;;;;;5093911;28;20481;-74
2022/01/05 07:07:57;;;;;;;13.68;4.63;;;3.10;99.90;;;;;;5093583;28;20044;-74
2022/01/05 07:10:23;;;;;;;17.80;4.88;;;3.10;99.90;;;;;;5094255;28;20052;-74
2022/01/05 07:12:49;;;;;;;14.50;4.88;;;3.20;99.90;;;;;;5093884;28;20062;-74
2022/01/05 07:15:15;;;;;;;20.70;4.93;;;3.20;99.90;;;;;;5093269;28;20040;-74
2022/01/05 07:17:41;;;;;;;20.38;5.60;;;3.20;99.90;;;;;;5093508;28;20074;-71
2022/01/05 07:20:08;;;;;;;15.02;5.60;;;3.20;99.90;;;;;;5094215;28;20048;-74
2022/01/05 07:22:35;;;;;;;13.50;4.90;;;3.20;99.90;;;;;;5094014;28;20051;-74
2022/01/05 07:25:01;;;;;;;13.98;4.60;;;3.20;99.90;;;;;;5093444;28;20117;-74
2022/01/05 07:27:26;;;;;;;11.40;4.15;;;3.30;99.90;;;;;;5094369;28;20051;-74
2022/01/05 07:29:52;;;;;;;12.13;4.00;;;3.20;99.90;;;;;;5093376;28;20066;-74
2022/01/05 07:32:18;;;;;;;11.90;4.10;;;3.20;99.90;;;;;;5094054;28;20032;-74
2022/01/05 07:34:44;;;;;;;8.73;4.43;;;3.10;99.90;;;;;;5093400;28;20104;-72
2022/01/05 07:37:09;;;;;;;12.40;3.92;;;3.10;99.90;;;;;;5093793;28;20105;-74
2022/01/05 07:39:36;;;;;;;12.32;4.15;;;3.10;99.90;;;;;;5093474;28;20052;-74
2022/01/05 07:42:03;;;;;;;14.57;4.70;;;3.00;99.90;;;;;;5093419;28;20043;-73
2022/01/05 07:44:28;;;;;;;11.98;4.25;;;3.00;99.90;;;;;;5094131;28;20048;-73
2022/01/05 07:46:54;;;;;;;9.90;4.20;;;3.00;99.90;;;;;;5092703;28;20062;-73
2022/01/05 07:49:20;;;;;;;8.77;3.85;;;2.90;99.90;;;;;;5093913;28;20044;-73
2022/01/05 07:51:46;;;;;;;7.60;3.88;;;2.90;99.90;;;;;;5092881;28;20040;-71
2022/01/05 07:54:11;;;;;;;7.97;3.58;;;2.80;99.90;;;;;;5093883;28;20047;-72
2022/01/05 07:56:37;;;;;;;9.52;4.10;;;2.70;99.90;;;;;;5093315;28;20047;-72
2022/01/05 07:59:03;;;;;;;11.65;5.07;;;2.70;99.90;;;;;;5091502;28;20398;-72
2022/01/05 08:01:29;;;;;;;11.10;4.70;;;2.60;99.90;;;;;;5093641;28;20097;-72
2022/01/05 08:03:55;;;;;;;10.05;5.10;;;2.60;99.90;;;;;;5092386;28;20412;-72
2022/01/05 08:06:21;;;;;;;13.85;5.63;;;2.60;99.90;;;;;;5093201;28;20047;-73
2022/01/05 08:08:47;;;;;;;14.70;5.80;;;2.60;99.90;;;;;;5092958;28;20123;-71
2022/01/05 08:11:14;;;;;;;12.85;5.90;;;2.50;99.90;;;;;;5093417;28;20130;-72
2022/01/05 08:13:39;;;;;;;14.00;6.20;;;2.50;99.90;;;;;;5090826;28;20052;-73
2022/01/05 08:16:07;;;;;;;13.25;6.22;;;2.50;99.90;;;;;;5092810;28;20557;-73
2022/01/05 08:18:33;;;;;;;12.43;6.43;;;2.50;99.90;;;;;;5093579;28;20044;-73
2022/01/05 08:20:58;;;;;;;13.98;6.50;;;2.60;99.90;;;;;;5092792;28;20131;-73
2022/01/05 08:23:24;;;;;;;13.48;7.13;;;2.60;99.90;;;;;;5091932;28;20127;-73
2022/01/05 08:25:51;;;;;;;17.33;7.75;;;2.70;99.90;;;;;;5092438;28;20044;-72
2022/01/05 08:28:18;;;;;;;15.73;7.97;;;2.80;99.90;;;;;;5093364;28;20408;-73
2022/01/05 08:30:45;;;;;;;14.48;7.82;;;2.90;99.90;;;;;;5092549;28;20044;-72
2022/01/05 08:33:12;;;;;;;20.77;8.45;;;3.00;99.90;;;;;;5092228;28;20083;-74
2022/01/05 08:35:38;;;;;;;17.40;7.95;;;3.10;99.90;;;;;;5092425;28;20115;-73
2022/01/05 08:38:04;;;;;;;21.70;8.32;;;3.30;99.90;;;;;;5092469;28;20500;-73
2022/01/05 08:40:33;;;;;;;18.23;7.43;;;3.50;99.90;;;;;;5092882;28;20083;-74
2022/01/05 08:42:59;;;;;;;18.58;7.82;;;3.60;99.90;;;;;;5092332;28;20115;-73
2022/01/05 08:45:25;;;;;;;18.00;6.32;;;3.70;99.90;;;;;;5092492;28;20040;-75
2022/01/05 08:47:56;;;;;;;19.27;6.15;;;3.70;99.90;;;;;;5092509;28;20044;-71
2022/01/05 08:50:22;;;;;;;;;;;3.80;99.90;;;;;;5091968;28;20044;-74
2022/01/05 08:52:49;;;;;;;13.65;4.50;;;3.90;99.90;;;;;;5092793;28;20258;-74
2022/01/05 08:55:17;;;;;;;19.10;4.03;;;4.00;99.90;;;;;;5091771;28;20127;-74
2022/01/05 08:57:43;;;;;;;13.25;3.58;;;4.00;99.90;;;;;;5092680;28;20507;-73
2022/01/05 09:00:10;;;;;;;13.30;3.30;;;4.10;99.90;;;;;;5091935;28;20054;-73
2022/01/05 09:02:36;;;;;;;10.57;2.90;;;4.10;99.90;;;;;;5092378;28;20484;-74
2022/01/05 09:05:03;;;;;;;10.50;3.00;;;4.20;99.90;;;;;;5091600;28;20051;-73
2022/01/05 09:07:29;;;;;;;13.23;3.45;;;4.20;99.90;;;;;;5092010;28;20090;-75
2022/01/05 09:09:54;;;;;;;13.18;4.13;;;4.30;99.90;;;;;;5090752;28;20075;-72
2022/01/05 09:12:20;;;;;;;14.10;3.00;;;4.30;99.90;;;;;;5092471;28;20056;-74
2022/01/05 09:14:46;;;;;;;12.50;3.05;;;4.40;99.90;;;;;;5092389;28;20461;-74
2022/01/05 09:17:12;;;;;;;12.75;2.53;;;4.40;99.90;;;;;;5093963;28;20040;-73
2022/01/05 09:19:37;;;;;;;6.53;2.10;;;4.50;99.90;;;;;;5096701;28;20044;-74
2022/01/05 09:22:04;;;;;;;7.78;1.50;;;4.50;99.90;;;;;;5095558;28;20036;-75
2022/01/05 09:24:32;;;;;;;7.28;1.75;;;4.60;99.90;;;;;;5096423;28;20552;-74
2022/01/05 09:27:02;;;;;;;4.35;1.60;;;4.60;99.90;;;;;;5096028;28;20040;-72
2022/01/05 09:29:29;;;;;;;7.70;1.65;;;4.70;99.90;;;;;;5096768;28;20470;-74
2022/01/05 09:31:55;;;;;;;9.68;1.83;;;4.70;99.90;;;;;;5094482;28;20056;-75
2022/01/05 09:34:21;;;;;;;10.00;2.10;;;4.80;99.90;;;;;;5095413;28;20055;-75
2022/01/05 09:36:51;;;;;;;8.88;1.95;;;4.80;99.90;;;;;;5096209;28;20051;-75
2022/01/05 09:42:05;;;;;;;13.68;2.70;;;5.00;99.90;;;;;;5095920;28;20096;-74
2022/01/05 09:44:38;;;;;;;14.38;2.70;;;5.10;99.90;;;;;;5096058;28;20040;-74
2022/01/05 09:47:19;;;;;;;11.02;2.78;;;5.20;99.90;;;;;;5095700;28;20485;-74
2022/01/05 09:50:04;;;;;;;12.27;2.70;;;5.20;99.90;;;;;;5094327;28;20105;-75
2022/01/05 09:52:37;;;;;;;13.50;2.75;;;5.20;99.90;;;;;;5095991;28;20044;-76
2022/01/05 09:55:06;;;;;;;10.95;2.58;;;5.20;99.90;;;;;;5095607;28;20048;-76
2022/01/05 09:57:32;;;;;;;12.43;2.55;;;5.30;99.90;;;;;;5087676;28;20071;-76
2022/01/05 09:59:59;;;;;;;10.00;2.38;;;5.30;99.90;;;;;;5090674;28;20069;-75
2022/01/05 10:02:24;;;;;;;11.73;2.80;;;5.40;99.90;;;;;;5090566;28;20044;-76
2022/01/05 10:04:50;;;;;;;9.93;2.30;;;5.50;99.90;;;;;;5080631;28;20040;-76
2022/01/05 10:07:16;;;;;;;9.05;1.95;;;5.50;99.90;;;;;;5092417;28;20073;-76
2022/01/05 10:09:43;;;;;;;11.38;2.40;;;5.60;99.90;;;;;;5091528;28;20040;-75
2022/01/05 10:12:11;;;;;;;11.20;2.25;;;5.60;99.90;;;;;;5091573;28;20131;-74
2022/01/05 10:14:46;;;;;;;8.80;2.47;;;5.70;99.90;;;;;;5091888;28;20389;-75
2022/01/05 10:17:14;;;;;;;11.82;2.47;;;5.70;99.90;;;;;;5092384;28;20048;-76
2022/01/05 10:19:41;;;;;;;11.00;2.40;;;5.60;99.90;;;;;;5092803;28;20040;-75
2022/01/05 10:22:27;;;;;;;12.68;2.95;;;5.60;99.90;;;;;;5090805;28;20404;-74
2022/01/05 10:24:54;;;;;;;14.05;2.65;;;5.70;99.90;;;;;;5092660;28;20488;-74
2022/01/05 10:27:22;;;;;;;10.50;2.60;;;5.70;99.90;;;;;;5091957;28;20051;-76
2022/01/05 10:30:07;;;;;;;10.40;2.78;;;5.70;99.90;;;;;;5092845;28;20044;-76
2022/01/05 10:32:34;;;;;;;12.48;2.72;;;5.70;99.90;;;;;;5092294;28;20473;-77
2022/01/05 10:35:01;;;;;;;13.80;2.70;;;5.70;99.90;;;;;;5091423;28;20051;-74
2022/01/05 10:37:27;;;;;;;9.38;2.67;;;5.70;99.90;;;;;;5090772;28;20409;-77
2022/01/05 10:40:23;;;;;;;10.95;2.88;;;5.70;99.90;;;;;;5090080;28;20224;-77
2022/01/05 10:42:56;;;;;;;13.15;2.97;;;5.80;99.90;;;;;;5075581;28;20048;-75
2022/01/05 10:45:37;;;;;;;12.27;2.83;;;5.80;99.90;;;;;;5090361;28;20046;-76
2022/01/05 10:48:05;;;;;;;12.43;2.63;;;5.80;99.90;;;;;;5091890;28;20119;-75
2022/01/05 10:50:31;;;;;;;13.18;2.67;;;5.80;99.90;;;;;;5091769;28;20043;-77
2022/01/05 10:52:58;;;;;;;14.32;3.00;;;5.90;99.90;;;;;;5092419;28;20381;-78
2022/01/05 10:55:26;;;;;;;11.25;2.20;;;6.00;99.90;;;;;;5091538;28;20123;-73
2022/01/05 10:58:04;;;;;;;12.63;3.17;;;6.10;99.90;;;;;;5072064;28;20481;-76
2022/01/05 11:00:44;;;;;;;13.68;3.05;;;6.30;99.90;;;;;;5090715;28;20047;-73
2022/01/05 11:03:39;;;;;;;15.32;4.03;;;6.40;99.90;;;;;;5092088;28;20063;-76
2022/01/05 11:06:16;;;;;;;13.80;3.58;;;6.50;99.90;;;;;;5092211;28;20048;-76
2022/01/05 11:08:59;;;;;;;12.15;2.88;;;6.60;99.90;;;;;;5092411;28;20688;-78
2022/01/05 11:11:41;;;;;;;15.38;3.30;;;6.70;99.90;;;;;;5091085;28;20044;-78
2022/01/05 11:14:17;;;;;;;13.90;3.10;;;6.70;99.90;;;;;;5091047;28;20192;-72
2022/01/05 11:16:45;;;;;;;10.13;2.80;;;6.70;99.90;;;;;;5087552;28;20040;-77
2022/01/05 11:19:27;;;;;;;12.93;2.47;;;6.70;99.90;;;;;;5090889;28;20089;-76
2022/01/05 11:22:00;;;;;;;14.93;2.88;;;6.80;99.90;;;;;;5092013;28;20061;-76
2022/01/05 11:24:28;;;;;;;10.85;2.97;;;6.70;99.90;;;;;;5091464;28;20489;-76
2022/01/05 11:26:54;;;;;;;13.02;3.28;;;6.80;99.90;;;;;;5091632;28;20099;-76
2022/01/05 11:29:21;;;;;;;14.93;3.45;;;6.80;99.90;;;;;;5091023;28;20044;-76
2022/01/05 11:31:46;;;;;;;13.38;3.15;;;6.80;99.90;;;;;;5091175;28;20129;-77
2022/01/05 11:34:13;;;;;;;8.48;2.45;;;6.90;99.90;;;;;;5090311;28;20113;-76
2022/01/05 11:36:41;;;;;;;14.00;2.85;;;7.00;99.90;;;;;;5091536;28;20135;-74
2022/01/05 11:39:06;;;;;;;9.15;2.75;;;7.10;99.90;;;;;;5090947;28;20055;-77
2022/01/05 11:41:35;;;;;;;11.70;2.45;;;7.10;99.90;;;;;;5090950;28;20040;-77
2022/01/05 11:44:04;;;;;;;11.85;3.22;;;7.20;99.90;;;;;;5090926;28;20044;-74
2022/01/05 11:46:30;;;;;;;14.73;3.13;;;7.20;99.90;;;;;;5091147;28;20073;-77
2022/01/05 11:49:08;;;;;;;15.25;3.17;;;7.20;99.90;;;;;;5090895;28;20044;-78
2022/01/05 11:51:42;;;;;;;11.95;2.92;;;7.20;99.90;;;;;;5090924;28;20157;-77
2022/01/05 11:54:16;;;;;;;15.18;3.03;;;7.30;99.90;;;;;;5091448;28;20126;-75
2022/01/05 11:56:54;;;;;;;12.85;3.22;;;7.30;99.90;;;;;;5090600;28;20044;-77
2022/01/05 11:59:34;;;;;;;14.68;2.80;;;7.30;99.90;;;;;;5090215;28;20044;-75
2022/01/05 12:02:13;;;;;;;13.05;2.95;;;7.40;99.90;;;;;;5091229;28;20044;-78
2022/01/05 12:04:57;;;;;;;11.25;2.65;;;7.40;99.90;;;;;;5090862;28;20044;-77
2022/01/05 12:07:41;;;;;;;12.40;3.22;;;7.40;99.90;;;;;;5090381;28;20047;-77
2022/01/05 12:10:21;;;;;;;10.60;2.85;;;7.40;99.90;;;;;;5090222;28;20435;-76
2022/01/05 12:13:04;;;;;;;12.82;2.78;;;7.50;99.90;;;;;;5091150;28;20083;-77
2022/01/05 12:15:43;;;;;;;12.50;2.70;;;7.50;99.90;;;;;;5089779;28;20055;-77
2022/01/05 12:18:11;;;;;;;12.70;2.47;;;7.50;99.90;;;;;;5090317;28;20047;-78
2022/01/05 12:20:39;;;;;;;11.93;2.88;;;7.50;99.90;;;;;;5090498;28;20097;-79
2022/01/05 12:23:25;;;;;;;9.32;2.58;;;7.50;99.90;;;;;;5090625;28;20388;-74
2022/01/05 12:26:07;;;;;;;11.02;2.58;;;7.60;99.90;;;;;;5090183;28;20079;-77
2022/01/05 12:28:48;;;;;;;11.32;2.72;;;7.50;99.90;;;;;;5090526;28;20097;-78
2022/01/05 12:31:14;;;;;;;10.77;2.90;;;7.60;99.90;;;;;;5090652;28;20048;-78
2022/01/05 12:33:49;;;;;;;10.10;2.35;;;7.50;99.90;;;;;;5090000;28;20607;-79
2022/01/05 12:36:35;;;;;;;10.18;2.22;;;7.50;99.90;;;;;;5090353;28;20048;-77
2022/01/05 12:39:06;;;;;;;8.98;1.90;;;7.40;99.90;;;;;;5090234;28;20123;-77
2022/01/05 12:41:33;;;;;;;;;;;7.40;99.90;;;;;;5090166;28;20123;-79
2022/01/05 12:44:34;;;;;;;10.27;2.50;;;7.30;99.90;;;;;;5090669;28;19923;-77
2022/01/05 12:46:59;;;;;;;;;;;7.20;99.90;;;;;;5078464;28;20056;-77
2022/01/05 12:49:29;;;;;;;10.18;2.55;;;7.20;99.90;;;;;;5089846;28;20011;-78
2022/01/05 12:52:09;;;;;;;8.38;1.73;;;7.20;99.90;;;;;;5089469;28;20080;-78
2022/01/05 12:54:42;;;;;;;8.18;2.10;;;7.20;99.90;;;;;;5089748;28;20344;-79
2022/01/05 12:57:19;;;;;;;10.88;2.20;;;7.20;99.90;;;;;;5089711;28;20044;-78
2022/01/05 12:59:51;;;;;;;10.43;2.45;;;7.30;99.90;;;;;;5090611;28;20511;-79